createdAt,value
2023-04-18T00:02:17.543Z,8.72
2023-04-18T00:04:46.625Z,8.74
2023-04-18T00:07:15.638Z,8.75
2023-04-18T00:09:44.632Z,8.77
2023-04-18T00:12:13.028Z,8.79
2023-04-18T00:14:41.432Z,8.80
2023-04-18T00:17:09.665Z,8.79
2023-04-18T00:19:37.800Z,8.80
2023-04-18T00:22:07.292Z,8.81
2023-04-18T00:24:35.032Z,8.82
2023-04-18T00:27:03.529Z,8.82
2023-04-18T00:29:31.965Z,8.83
2023-04-18T00:31:59.672Z,8.82
2023-04-18T00:34:27.385Z,8.82
2023-04-18T00:36:55.162Z,8.82
2023-04-18T00:39:22.948Z,8.81
2023-04-18T00:41:51.197Z,8.81
2023-04-18T00:44:19.529Z,8.84
2023-04-18T00:46:47.357Z,8.86
2023-04-18T00:49:15.720Z,8.89
2023-04-18T00:51:43.827Z,8.91
2023-04-18T00:54:13.679Z,8.95
2023-04-18T00:56:42.547Z,8.97
2023-04-18T00:59:11.466Z,8.99
2023-04-18T01:01:40.321Z,9.01
2023-04-18T01:04:08.294Z,9.02
2023-04-18T01:06:37.135Z,9.02
2023-04-18T01:09:05.758Z,9.03
2023-04-18T01:11:34.148Z,9.04
2023-04-18T01:14:03.819Z,9.04
2023-04-18T01:16:36.979Z,9.03
2023-04-18T01:19:05.855Z,9.03
2023-04-18T01:21:36.186Z,9.01
2023-04-18T01:24:08.489Z,9.00
2023-04-18T01:26:36.702Z,9.00
2023-04-18T01:29:05.860Z,8.99
2023-04-18T01:31:36.282Z,8.98
2023-04-18T01:34:05.207Z,8.97
2023-04-18T01:36:33.720Z,8.96
2023-04-18T01:39:01.589Z,8.96
2023-04-18T01:41:32.872Z,8.94
2023-04-18T01:44:01.685Z,8.89
2023-04-18T01:46:29.629Z,8.84
2023-04-18T01:48:59.650Z,8.78
2023-04-18T01:51:28.036Z,8.73
2023-04-18T01:53:55.795Z,8.68
2023-04-18T01:56:24.025Z,8.63
2023-04-18T01:58:52.344Z,8.59
2023-04-18T02:01:20.435Z,8.55
2023-04-18T02:03:48.496Z,8.52
2023-04-18T02:06:16.517Z,8.48
2023-04-18T02:08:44.689Z,8.47
2023-04-18T02:11:13.008Z,8.44
2023-04-18T02:13:40.788Z,8.44
2023-04-18T02:16:13.123Z,8.42
2023-04-18T02:18:43.409Z,8.39
2023-04-18T02:21:12.048Z,8.36
2023-04-18T02:23:40.690Z,8.33
2023-04-18T02:26:08.902Z,8.31
2023-04-18T02:28:39.243Z,8.29
2023-04-18T02:31:07.536Z,8.28
2023-04-18T02:33:35.263Z,8.26
2023-04-18T02:36:03.788Z,8.24
2023-04-18T02:38:32.397Z,8.22
2023-04-18T02:41:00.116Z,8.20
2023-04-18T02:43:28.022Z,8.19
2023-04-18T02:45:56.205Z,8.16
2023-04-18T02:48:24.317Z,8.15
2023-04-18T02:50:52.541Z,8.13
2023-04-18T02:53:24.042Z,8.12
2023-04-18T02:55:51.705Z,8.10
2023-04-18T02:58:19.420Z,8.08
2023-04-18T03:00:47.224Z,8.06
2023-04-18T03:03:15.000Z,8.05
2023-04-18T03:05:43.240Z,8.03
2023-04-18T03:08:12.106Z,8.02
2023-04-18T03:10:40.208Z,8.00
2023-04-18T03:13:07.944Z,7.97
2023-04-18T03:15:35.845Z,7.95
2023-04-18T03:18:03.652Z,7.93
2023-04-18T03:20:31.609Z,7.90
2023-04-18T03:22:59.305Z,7.88
2023-04-18T03:25:26.993Z,7.86
2023-04-18T03:27:54.659Z,7.84
2023-04-18T03:30:22.613Z,7.83
2023-04-18T03:32:50.372Z,7.81
2023-04-18T03:35:18.449Z,7.80
2023-04-18T03:37:46.208Z,7.79
2023-04-18T03:40:14.096Z,7.80
2023-04-18T03:42:41.766Z,7.80
2023-04-18T03:45:09.867Z,7.79
2023-04-18T03:47:38.202Z,7.80
2023-04-18T03:50:06.483Z,7.80
2023-04-18T03:52:34.188Z,7.80
2023-04-18T03:55:01.908Z,7.79
2023-04-18T03:57:29.648Z,7.78
2023-04-18T03:59:57.399Z,7.75
2023-04-18T04:02:26.441Z,7.73
2023-04-18T04:04:54.321Z,7.71
2023-04-18T04:07:22.204Z,7.69
2023-04-18T04:09:49.935Z,7.69
2023-04-18T04:12:17.744Z,7.70
2023-04-18T04:14:46.031Z,7.71
2023-04-18T04:17:13.774Z,7.74
2023-04-18T04:19:41.504Z,7.77
2023-04-18T04:22:09.611Z,7.79
2023-04-18T04:24:38.764Z,7.84
2023-04-18T04:27:06.485Z,7.89
2023-04-18T04:29:35.505Z,7.93
2023-04-18T04:32:05.753Z,7.96
2023-04-18T04:34:34.624Z,8.01
2023-04-18T04:37:03.182Z,8.05
2023-04-18T04:39:30.894Z,8.08
2023-04-18T04:41:58.581Z,8.13
2023-04-18T04:44:27.049Z,8.22
2023-04-18T04:46:54.812Z,8.27
2023-04-18T04:49:22.587Z,8.33
2023-04-18T04:51:50.332Z,8.37
2023-04-18T04:54:18.051Z,8.40
2023-04-18T04:56:46.225Z,8.45
2023-04-18T04:59:14.620Z,8.48
2023-04-18T05:01:42.449Z,8.51
2023-04-18T05:04:10.466Z,8.55
2023-04-18T05:06:40.291Z,8.57
2023-04-18T05:09:08.269Z,8.58
2023-04-18T05:11:36.023Z,8.59
2023-04-18T05:14:04.420Z,8.58
2023-04-18T05:16:32.224Z,8.58
2023-04-18T05:19:00.033Z,8.60
2023-04-18T05:21:28.729Z,8.59
2023-04-18T05:23:56.452Z,8.60
2023-04-18T05:26:25.255Z,8.62
2023-04-18T05:28:53.721Z,8.63
2023-04-18T05:31:21.816Z,8.63
2023-04-18T05:33:49.581Z,8.65
2023-04-18T05:36:17.399Z,8.67
2023-04-18T05:38:45.095Z,8.69
2023-04-18T05:41:13.312Z,8.69
2023-04-18T05:43:42.975Z,8.73
2023-04-18T05:46:13.075Z,8.76
2023-04-18T05:48:40.795Z,8.78
2023-04-18T05:51:10.586Z,8.83
2023-04-18T05:53:39.394Z,8.89
2023-04-18T05:56:07.700Z,8.92
2023-04-18T05:58:35.918Z,8.94
2023-04-18T06:01:03.673Z,8.99
2023-04-18T06:03:31.597Z,9.06
2023-04-18T06:06:00.012Z,9.14
2023-04-18T06:08:28.190Z,9.22
2023-04-18T06:10:56.419Z,9.30
2023-04-18T06:13:24.217Z,9.38
2023-04-18T06:15:52.010Z,9.45
2023-04-18T06:18:19.766Z,9.56
2023-04-18T06:20:48.001Z,9.64
2023-04-18T06:23:16.809Z,9.70
2023-04-18T06:25:44.576Z,9.73
2023-04-18T06:28:12.360Z,9.77
2023-04-18T06:30:40.168Z,9.78
2023-04-18T06:33:10.616Z,9.80
2023-04-18T06:35:38.996Z,9.82
2023-04-18T06:38:06.860Z,9.84
2023-04-18T06:40:35.217Z,9.90
2023-04-18T06:43:03.148Z,9.97
2023-04-18T06:45:31.614Z,10.06
2023-04-18T06:48:05.539Z,10.20
2023-04-18T06:50:33.273Z,10.34
2023-04-18T06:53:01.221Z,10.45
2023-04-18T06:55:29.852Z,10.56
2023-04-18T06:57:57.654Z,10.65
2023-04-18T07:00:25.848Z,10.76
2023-04-18T07:02:54.268Z,10.84
2023-04-18T07:05:22.273Z,10.85
2023-04-18T07:07:50.018Z,10.83
2023-04-18T07:10:18.337Z,10.81
2023-04-18T07:12:47.659Z,10.86
2023-04-18T07:15:15.573Z,10.90
2023-04-18T07:17:43.875Z,10.98
2023-04-18T07:20:13.091Z,11.10
2023-04-18T07:22:42.365Z,11.18
2023-04-18T07:25:10.720Z,11.25
2023-04-18T07:27:38.574Z,11.38
2023-04-18T07:30:07.451Z,11.44
2023-04-18T07:32:35.907Z,11.48
2023-04-18T07:35:04.467Z,11.53
2023-04-18T07:37:32.819Z,11.56
2023-04-18T07:40:01.077Z,11.59
2023-04-18T07:42:28.811Z,11.62
2023-04-18T07:44:58.744Z,11.66
2023-04-18T07:47:30.419Z,11.67
2023-04-18T07:49:58.969Z,11.72
2023-04-18T07:52:27.078Z,11.76
2023-04-18T07:54:54.831Z,11.85
2023-04-18T07:57:22.616Z,12.00
2023-04-18T07:59:53.812Z,12.09
2023-04-18T08:02:21.737Z,12.16
2023-04-18T08:04:52.213Z,12.25
2023-04-18T08:07:20.209Z,12.32
2023-04-18T08:09:48.418Z,12.40
2023-04-18T08:14:44.578Z,12.52
2023-04-18T08:17:12.810Z,12.53
2023-04-18T08:19:40.513Z,12.50
2023-04-18T08:22:10.386Z,12.58
2023-04-18T08:24:38.831Z,12.68
2023-04-18T08:27:06.964Z,12.71
2023-04-18T08:29:35.095Z,12.74
2023-04-18T08:32:07.219Z,12.79
2023-04-18T08:34:36.975Z,12.85
2023-04-18T08:37:04.804Z,12.84
2023-04-18T08:39:32.663Z,12.92
2023-04-18T08:42:01.832Z,13.03
2023-04-18T08:44:30.675Z,13.12
2023-04-18T08:46:59.646Z,13.12
2023-04-18T08:49:28.533Z,13.15
2023-04-18T08:51:58.014Z,13.26
2023-04-18T08:54:27.401Z,13.34
2023-04-18T08:57:08.833Z,13.39
2023-04-18T08:59:37.142Z,13.43
2023-04-18T09:02:09.067Z,13.49
2023-04-18T09:04:44.970Z,13.53
2023-04-18T09:07:14.441Z,13.56
2023-04-18T09:09:54.513Z,13.65
2023-04-18T09:12:29.693Z,13.67
2023-04-18T09:15:20.493Z,13.73
2023-04-18T09:17:51.077Z,13.74
2023-04-18T09:20:26.766Z,13.79
2023-04-18T09:22:57.764Z,13.88
2023-04-18T09:25:34.566Z,13.98
2023-04-18T09:28:14.518Z,14.11
2023-04-18T09:30:43.261Z,14.19
2023-04-18T09:33:11.537Z,14.32
2023-04-18T09:35:39.321Z,14.44
2023-04-18T09:38:07.839Z,14.63
2023-04-18T09:40:35.793Z,14.69
2023-04-18T09:43:19.129Z,14.75
2023-04-18T09:45:49.103Z,14.79
2023-04-18T09:48:17.418Z,14.85
2023-04-18T09:50:46.608Z,14.92
2023-04-18T09:53:20.651Z,14.97
2023-04-18T09:55:56.232Z,14.96
2023-04-18T09:58:31.281Z,14.93
2023-04-18T10:00:59.723Z,15.04
2023-04-18T10:03:34.802Z,15.11
2023-04-18T10:06:03.623Z,15.11
2023-04-18T10:08:32.869Z,15.21
2023-04-18T10:11:01.449Z,15.22
2023-04-18T10:13:30.382Z,15.26
2023-04-18T10:15:58.872Z,15.34
2023-04-18T10:18:26.786Z,15.47
2023-04-18T10:21:03.393Z,15.44
2023-04-18T10:23:37.660Z,15.50
2023-04-18T10:26:11.228Z,15.59
2023-04-18T10:28:54.873Z,15.71
2023-04-18T10:31:24.736Z,15.70
2023-04-18T10:34:04.750Z,15.72
2023-04-18T10:36:33.989Z,15.75
2023-04-18T10:39:21.056Z,15.70
2023-04-18T10:41:51.060Z,15.68
2023-04-18T10:44:22.358Z,15.69
2023-04-18T10:46:51.199Z,15.72
2023-04-18T10:49:31.186Z,15.75
2023-04-18T10:52:02.003Z,15.70
2023-04-18T10:54:58.501Z,15.73
2023-04-18T10:57:38.949Z,15.73
2023-04-18T11:00:11.306Z,15.61
2023-04-18T11:02:40.431Z,15.58
2023-04-18T11:05:09.025Z,15.60
2023-04-18T11:07:46.229Z,15.62
2023-04-18T11:10:20.118Z,15.68
2023-04-18T11:12:48.419Z,15.74
2023-04-18T11:15:24.364Z,15.68
2023-04-18T11:18:05.185Z,15.65
2023-04-18T11:20:41.771Z,15.59
2023-04-18T11:23:23.918Z,15.48
2023-04-18T11:25:54.202Z,15.40
2023-04-18T11:28:24.831Z,15.47
2023-04-18T11:30:53.113Z,15.51
2023-04-18T11:33:21.537Z,15.51
2023-04-18T11:35:49.275Z,15.50
2023-04-18T11:38:17.213Z,15.48
2023-04-18T11:40:49.119Z,15.48
2023-04-18T11:43:25.825Z,15.51
2023-04-18T11:45:56.304Z,15.63
2023-04-18T11:48:34.525Z,15.71
2023-04-18T11:51:02.291Z,15.79
2023-04-18T11:53:34.833Z,15.74
2023-04-18T11:56:03.828Z,15.74
2023-04-18T11:58:34.928Z,15.69
2023-04-18T12:01:23.982Z,15.60
2023-04-18T12:04:05.865Z,15.66
2023-04-18T12:06:51.336Z,15.72
2023-04-18T12:09:21.909Z,15.73
2023-04-18T12:12:01.652Z,15.78
2023-04-18T12:14:30.827Z,15.74
2023-04-18T12:16:58.625Z,15.72
2023-04-18T12:19:28.449Z,15.75
2023-04-18T12:22:00.688Z,15.73
2023-04-18T12:24:30.013Z,15.70
2023-04-18T12:26:58.672Z,15.71
2023-04-18T12:29:28.188Z,15.76
2023-04-18T12:31:56.103Z,15.89
2023-04-18T12:34:24.958Z,15.97
2023-04-18T12:36:53.858Z,15.96
2023-04-18T12:39:21.646Z,15.95
2023-04-18T12:41:50.011Z,15.94
2023-04-18T12:44:18.360Z,15.93
2023-04-18T12:46:46.692Z,16.02
2023-04-18T12:49:14.972Z,16.08
2023-04-18T12:51:43.719Z,16.10
2023-04-18T12:54:11.575Z,16.15
2023-04-18T12:56:39.455Z,16.11
2023-04-18T12:59:07.156Z,16.13
2023-04-18T13:01:35.713Z,16.16
2023-04-18T13:04:12.358Z,16.21
2023-04-18T13:06:40.926Z,16.26
2023-04-18T13:09:09.415Z,16.30
2023-04-18T13:11:37.241Z,16.41
2023-04-18T13:14:05.585Z,16.47
2023-04-18T13:16:33.996Z,16.56
2023-04-18T13:19:01.712Z,16.63
2023-04-18T13:21:29.485Z,16.66
2023-04-18T13:23:57.513Z,16.72
2023-04-18T13:26:25.803Z,16.67
2023-04-18T13:28:54.264Z,16.62
2023-04-18T13:31:22.613Z,16.62
2023-04-18T13:33:50.326Z,16.62
2023-04-18T13:36:18.153Z,16.53
2023-04-18T13:38:46.614Z,16.48
2023-04-18T13:41:14.342Z,16.43
2023-04-18T13:43:42.779Z,16.44
2023-04-18T13:46:11.862Z,16.43
2023-04-18T13:48:39.596Z,16.35
2023-04-18T13:51:07.475Z,16.30
2023-04-18T13:53:35.614Z,16.27
2023-04-18T13:56:03.507Z,16.28
2023-04-18T13:58:31.318Z,16.18
2023-04-18T14:00:59.595Z,16.12
2023-04-18T14:03:29.380Z,16.12
2023-04-18T14:05:58.945Z,16.12
2023-04-18T14:08:26.684Z,16.08
2023-04-18T14:10:54.777Z,16.01
2023-04-18T14:13:22.581Z,15.97
2023-04-18T14:15:52.984Z,15.93
2023-04-18T14:18:24.757Z,15.90
2023-04-18T14:20:52.436Z,15.84
2023-04-18T14:23:22.516Z,15.82
2023-04-18T14:25:50.260Z,15.80
2023-04-18T14:28:21.591Z,15.77
2023-04-18T14:30:49.850Z,15.72
2023-04-18T14:33:18.423Z,15.68
2023-04-18T14:35:46.254Z,15.68
2023-04-18T14:38:14.129Z,15.66
2023-04-18T14:40:42.174Z,15.65
2023-04-18T14:43:10.410Z,15.64
2023-04-18T14:45:38.807Z,15.65
2023-04-18T14:48:08.125Z,15.62
2023-04-18T14:50:38.740Z,15.59
2023-04-18T14:53:07.123Z,15.54
2023-04-18T14:55:35.026Z,15.54
2023-04-18T14:58:04.118Z,15.51
2023-04-18T15:00:33.278Z,15.47
2023-04-18T15:03:01.482Z,15.41
2023-04-18T15:05:29.588Z,15.38
2023-04-18T15:07:58.116Z,15.29
2023-04-18T15:10:26.320Z,15.23
2023-04-18T15:12:54.512Z,15.19
2023-04-18T15:15:22.711Z,15.18
2023-04-18T15:17:50.512Z,15.21
2023-04-18T15:20:18.381Z,15.24
2023-04-18T15:22:46.757Z,15.27
2023-04-18T15:25:16.818Z,15.32
2023-04-18T15:27:44.512Z,15.40
2023-04-18T15:30:12.568Z,15.45
2023-04-18T15:32:42.327Z,15.46
2023-04-18T15:35:11.332Z,15.48
2023-04-18T15:37:39.741Z,15.50
2023-04-18T15:40:10.490Z,15.49
2023-04-18T15:42:39.482Z,15.45
2023-04-18T15:45:08.117Z,15.45
2023-04-18T15:47:36.333Z,15.47
2023-04-18T15:50:05.018Z,15.44
2023-04-18T15:52:33.443Z,15.41
2023-04-18T15:55:01.958Z,15.37
2023-04-18T15:57:29.872Z,15.32
2023-04-18T15:59:58.642Z,15.31
2023-04-18T16:02:27.397Z,15.29
2023-04-18T16:04:55.711Z,15.34
2023-04-18T16:07:24.104Z,15.39
2023-04-18T16:09:51.836Z,15.39
2023-04-18T16:12:19.539Z,15.37
2023-04-18T16:14:47.257Z,15.35
2023-04-18T16:17:14.988Z,15.35
2023-04-18T16:19:43.992Z,15.32
2023-04-18T16:22:12.499Z,15.25
2023-04-18T16:24:42.197Z,15.16
2023-04-18T16:27:10.153Z,15.06
2023-04-18T16:29:37.870Z,14.97
2023-04-18T16:32:09.375Z,14.88
2023-04-18T16:34:37.621Z,14.79
2023-04-18T16:37:05.625Z,14.71
2023-04-18T16:39:33.359Z,14.62
2023-04-18T16:42:01.529Z,14.52
2023-04-18T16:44:30.330Z,14.42
2023-04-18T16:46:58.743Z,14.34
2023-04-18T16:49:26.610Z,14.24
2023-04-18T16:51:54.391Z,14.14
2023-04-18T16:54:22.377Z,14.05
2023-04-18T16:56:50.080Z,13.95
2023-04-18T16:59:18.478Z,13.87
2023-04-18T17:01:47.029Z,13.77
2023-04-18T17:04:15.581Z,13.69
2023-04-18T17:06:43.927Z,13.60
2023-04-18T17:09:14.837Z,13.51
2023-04-18T17:11:42.708Z,13.42
2023-04-18T17:14:11.632Z,13.34
2023-04-18T17:16:41.417Z,13.25
2023-04-18T17:19:10.337Z,13.16
2023-04-18T17:21:38.275Z,13.08
2023-04-18T17:24:07.260Z,13.00
2023-04-18T17:26:36.672Z,12.91
2023-04-18T17:29:04.827Z,12.83
2023-04-18T17:31:33.136Z,12.75
2023-04-18T17:34:01.121Z,12.67
2023-04-18T17:36:28.900Z,12.61
2023-04-18T17:38:58.479Z,12.54
2023-04-18T17:41:26.198Z,12.47
2023-04-18T17:43:54.526Z,12.42
2023-04-18T17:46:22.892Z,12.36
2023-04-18T17:48:50.728Z,12.30
2023-04-18T17:51:19.399Z,12.25
2023-04-18T17:53:47.910Z,12.20
2023-04-18T17:56:15.687Z,12.14
2023-04-18T17:58:43.991Z,12.09
2023-04-18T18:01:16.469Z,12.03
2023-04-18T18:03:45.181Z,11.99
2023-04-18T18:06:14.269Z,11.95
2023-04-18T18:08:42.966Z,11.90
2023-04-18T18:11:11.079Z,11.85
2023-04-18T18:13:39.551Z,11.80
2023-04-18T18:16:09.132Z,11.76
2023-04-18T18:18:37.429Z,11.73
2023-04-18T18:21:05.235Z,11.68
2023-04-18T18:23:33.017Z,11.64
2023-04-18T18:26:00.838Z,11.58
2023-04-18T18:28:29.215Z,11.54
2023-04-18T18:30:57.814Z,11.49
2023-04-18T18:33:25.648Z,11.44
2023-04-18T18:35:53.719Z,11.40
2023-04-18T18:38:21.830Z,11.37
2023-04-18T18:40:49.545Z,11.34
2023-04-18T18:43:17.767Z,11.30
2023-04-18T18:45:46.205Z,11.27
2023-04-18T18:48:15.521Z,11.23
2023-04-18T18:50:43.298Z,11.20
2023-04-18T18:53:11.230Z,11.17
2023-04-18T18:55:38.971Z,11.12
2023-04-18T18:58:08.117Z,11.09
2023-04-18T19:00:36.466Z,11.06
2023-04-18T19:03:04.388Z,11.02
2023-04-18T19:05:32.378Z,10.99
2023-04-18T19:08:04.125Z,10.97
2023-04-18T19:10:31.851Z,10.96
2023-04-18T19:13:00.427Z,10.95
2023-04-18T19:15:28.749Z,10.95
2023-04-18T19:17:56.637Z,10.94
2023-04-18T19:20:24.565Z,10.95
2023-04-18T19:22:52.342Z,10.96
2023-04-18T19:25:20.019Z,10.98
2023-04-18T19:27:48.205Z,10.98
2023-04-18T19:30:16.425Z,10.99
2023-04-18T19:32:44.522Z,11.00
2023-04-18T19:35:13.372Z,11.00
2023-04-18T19:37:41.838Z,11.00
2023-04-18T19:40:10.479Z,11.00
2023-04-18T19:42:38.787Z,11.00
2023-04-18T19:45:07.811Z,11.01
2023-04-18T19:47:35.629Z,11.01
2023-04-18T19:50:03.525Z,11.02
2023-04-18T19:52:31.263Z,11.01
2023-04-18T19:54:58.988Z,11.01
2023-04-18T19:57:28.913Z,11.01
2023-04-18T19:59:57.105Z,11.01
2023-04-18T20:02:24.944Z,11.01
2023-04-18T20:04:52.946Z,11.01
2023-04-18T20:07:20.995Z,11.02
2023-04-18T20:09:48.716Z,11.02
2023-04-18T20:12:17.017Z,11.02
2023-04-18T20:14:45.379Z,11.02
2023-04-18T20:17:13.236Z,11.01
2023-04-18T20:19:41.436Z,11.02
2023-04-18T20:22:09.455Z,11.01
2023-04-18T20:24:39.443Z,11.02
2023-04-18T20:27:07.799Z,11.02
2023-04-18T20:29:36.117Z,11.02
2023-04-18T20:32:04.032Z,11.02
2023-04-18T20:34:32.234Z,11.01
2023-04-18T20:37:00.136Z,11.01
2023-04-18T20:39:28.177Z,11.02
2023-04-18T20:41:57.957Z,11.02
2023-04-18T20:44:26.518Z,11.03
2023-04-18T20:46:54.307Z,11.03
2023-04-18T20:49:22.041Z,11.02
2023-04-18T20:51:49.983Z,11.01
2023-04-18T20:54:17.899Z,11.00
2023-04-18T20:56:46.290Z,11.00
2023-04-18T20:59:14.564Z,11.00
2023-04-18T21:01:42.842Z,11.00
2023-04-18T21:04:10.724Z,11.00
2023-04-18T21:06:38.664Z,10.99
2023-04-18T21:09:07.516Z,10.98
2023-04-18T21:11:35.733Z,10.97
2023-04-18T21:14:06.666Z,10.96
2023-04-18T21:16:34.673Z,10.95
2023-04-18T21:19:02.654Z,10.94
2023-04-18T21:21:31.477Z,10.92
2023-04-18T21:23:59.149Z,10.90
2023-04-18T21:26:27.694Z,10.88
2023-04-18T21:29:01.523Z,10.86
2023-04-18T21:31:31.167Z,10.84
2023-04-18T21:34:00.852Z,10.81
2023-04-18T21:36:29.663Z,10.81
2023-04-18T21:39:00.781Z,10.79
2023-04-18T21:41:28.694Z,10.77
2023-04-18T21:43:56.476Z,10.76
2023-04-18T21:46:24.912Z,10.75
2023-04-18T21:48:53.089Z,10.75
2023-04-18T21:51:20.924Z,10.74
2023-04-18T21:53:49.128Z,10.72
2023-04-18T21:56:17.230Z,10.73
2023-04-18T21:58:45.299Z,10.72
2023-04-18T22:01:13.707Z,10.71
2023-04-18T22:03:41.733Z,10.71
2023-04-18T22:06:09.766Z,10.71
2023-04-18T22:08:37.554Z,10.70
2023-04-18T22:11:05.472Z,10.71
2023-04-18T22:13:33.742Z,10.69
2023-04-18T22:16:03.343Z,10.68
2023-04-18T22:18:37.894Z,10.66
2023-04-18T22:21:06.224Z,10.64
2023-04-18T22:23:33.982Z,10.63
2023-04-18T22:26:02.213Z,10.62
2023-04-18T22:28:30.102Z,10.59
2023-04-18T22:30:58.427Z,10.56
2023-04-18T22:33:26.201Z,10.53
2023-04-18T22:35:54.472Z,10.51
2023-04-18T22:38:22.229Z,10.48
2023-04-18T22:40:50.438Z,10.46
2023-04-18T22:43:22.971Z,10.42
2023-04-18T22:45:51.671Z,10.40
2023-04-18T22:48:19.529Z,10.38
2023-04-18T22:50:47.469Z,10.37
2023-04-18T22:53:16.127Z,10.36
2023-04-18T22:55:46.209Z,10.36
2023-04-18T22:58:14.375Z,10.35
2023-04-18T23:00:42.535Z,10.34
2023-04-18T23:03:10.718Z,10.33
2023-04-18T23:05:38.712Z,10.33
2023-04-18T23:08:07.113Z,10.33
2023-04-18T23:10:35.059Z,10.33
2023-04-18T23:13:02.871Z,10.33
2023-04-18T23:15:30.600Z,10.33
2023-04-18T23:17:58.566Z,10.33
2023-04-18T23:20:26.312Z,10.33
2023-04-18T23:22:55.504Z,10.33
2023-04-18T23:25:24.042Z,10.32
2023-04-18T23:27:51.820Z,10.30
2023-04-18T23:30:19.573Z,10.29
2023-04-18T23:32:47.292Z,10.27
2023-04-18T23:35:15.102Z,10.26
2023-04-18T23:37:43.026Z,10.25
2023-04-18T23:40:11.189Z,10.25
2023-04-18T23:42:39.161Z,10.24
2023-04-18T23:45:07.313Z,10.23
2023-04-18T23:47:35.332Z,10.23
2023-04-18T23:50:03.410Z,10.22
2023-04-18T23:52:31.173Z,10.21
2023-04-18T23:55:00.756Z,10.20
2023-04-18T23:57:28.669Z,10.19
2023-04-18T23:59:56.465Z,10.18
